createdAt,value
2023-01-17T00:02:14.945Z,8.83
2023-01-17T00:05:00.444Z,6.93
2023-01-17T00:07:46.119Z,9.65
2023-01-17T00:10:13.658Z,9.00
2023-01-17T00:12:41.177Z,7.37
2023-01-17T00:15:08.850Z,6.82
2023-01-17T00:17:36.399Z,8.73
2023-01-17T00:20:21.869Z,5.37
2023-01-17T00:23:07.345Z,4.67
2023-01-17T00:25:52.700Z,6.63
2023-01-17T00:28:19.744Z,7.13
2023-01-17T00:30:46.757Z,5.23
2023-01-17T00:33:13.775Z,7.90
2023-01-17T00:35:40.821Z,7.73
2023-01-17T00:38:07.827Z,6.63
2023-01-17T00:40:34.856Z,8.30
2023-01-17T00:43:20.517Z,9.93
2023-01-17T00:46:05.745Z,11.20
2023-01-17T00:48:51.191Z,9.53
2023-01-17T00:51:36.648Z,9.80
2023-01-17T00:54:21.761Z,11.23
2023-01-17T00:57:07.102Z,10.70
2023-01-17T00:59:52.487Z,7.33
2023-01-17T01:02:37.882Z,7.83
2023-01-17T01:05:23.349Z,8.93
2023-01-17T01:08:08.637Z,9.33
2023-01-17T01:10:54.162Z,6.47
2023-01-17T01:13:42.324Z,8.60
2023-01-17T01:16:29.177Z,7.47
2023-01-17T01:19:14.482Z,6.37
2023-01-17T01:21:59.902Z,6.67
2023-01-17T01:24:45.230Z,5.07
2023-01-17T01:27:30.785Z,7.80
2023-01-17T01:30:16.213Z,7.13
2023-01-17T01:33:01.741Z,6.87
2023-01-17T01:35:29.259Z,7.83
2023-01-17T01:37:56.783Z,7.70
2023-01-17T01:40:24.341Z,8.10
2023-01-17T01:42:54.595Z,8.75
2023-01-17T01:45:22.160Z,9.05
2023-01-17T01:47:49.638Z,6.33
2023-01-17T01:50:17.164Z,10.07
2023-01-17T01:52:44.693Z,10.67
2023-01-17T01:55:12.252Z,14.27
2023-01-17T01:57:39.770Z,9.50
2023-01-17T02:00:10.169Z,12.02
2023-01-17T02:02:37.741Z,10.70
2023-01-17T02:05:05.272Z,13.90
2023-01-17T02:07:32.800Z,10.90
2023-01-17T02:10:00.338Z,8.33
2023-01-17T02:12:27.864Z,8.10
2023-01-17T02:14:55.402Z,13.17
2023-01-17T02:17:34.788Z,8.83
2023-01-17T02:20:20.187Z,5.23
2023-01-17T02:22:56.303Z,7.10
2023-01-17T02:25:50.855Z,8.17
2023-01-17T02:28:51.594Z,7.97
2023-01-17T02:31:21.557Z,6.27
2023-01-17T02:33:51.694Z,7.30
2023-01-17T02:36:34.053Z,9.43
2023-01-17T02:39:01.572Z,9.60
2023-01-17T02:41:29.058Z,8.43
2023-01-17T02:43:56.848Z,6.13
2023-01-17T02:46:24.374Z,10.87
2023-01-17T02:48:51.887Z,13.70
2023-01-17T02:51:27.828Z,11.63
2023-01-17T02:53:55.336Z,9.57
2023-01-17T02:56:32.589Z,8.82
2023-01-17T02:59:02.783Z,7.00
2023-01-17T03:01:45.547Z,5.77
2023-01-17T03:04:18.803Z,4.93
2023-01-17T03:06:54.813Z,4.40
2023-01-17T03:09:22.341Z,4.93
2023-01-17T03:11:49.914Z,5.10
2023-01-17T03:14:17.419Z,3.10
2023-01-17T03:16:44.985Z,3.80
2023-01-17T03:19:12.480Z,3.03
2023-01-17T03:21:40.004Z,4.13
2023-01-17T03:24:07.510Z,4.90
2023-01-17T03:26:35.035Z,6.70
2023-01-17T03:29:02.541Z,5.70
2023-01-17T03:31:30.055Z,6.00
2023-01-17T03:33:57.587Z,4.83
2023-01-17T03:36:25.109Z,6.87
2023-01-17T03:38:52.624Z,5.87
2023-01-17T03:41:20.154Z,6.63
2023-01-17T03:43:47.669Z,6.90
2023-01-17T03:46:21.024Z,5.60
2023-01-17T03:48:48.572Z,7.53
2023-01-17T03:51:16.115Z,7.37
2023-01-17T03:53:43.626Z,6.13
2023-01-17T03:56:11.173Z,6.87
2023-01-17T03:58:38.694Z,7.93
2023-01-17T04:01:06.299Z,6.57
2023-01-17T04:03:34.048Z,5.93
2023-01-17T04:06:01.579Z,6.43
2023-01-17T04:08:29.120Z,9.20
2023-01-17T04:10:56.913Z,6.40
2023-01-17T04:13:24.418Z,7.03
2023-01-17T04:15:51.942Z,7.50
2023-01-17T04:18:19.461Z,7.00
2023-01-17T04:20:46.969Z,9.57
2023-01-17T04:23:14.485Z,8.03
2023-01-17T04:25:42.055Z,5.83
2023-01-17T04:28:09.564Z,7.50
2023-01-17T04:30:37.165Z,9.50
2023-01-17T04:33:04.658Z,8.33
2023-01-17T04:35:32.188Z,11.57
2023-01-17T04:37:59.727Z,10.30
2023-01-17T04:40:27.267Z,6.60
2023-01-17T04:42:54.845Z,13.30
2023-01-17T04:45:22.405Z,9.63
2023-01-17T04:47:49.931Z,7.73
2023-01-17T04:50:17.465Z,12.13
2023-01-17T04:52:44.987Z,8.07
2023-01-17T04:55:12.512Z,9.20
2023-01-17T04:57:40.061Z,10.03
2023-01-17T05:00:07.656Z,7.50
2023-01-17T05:02:35.243Z,10.67
2023-01-17T05:05:02.705Z,10.05
2023-01-17T05:07:30.208Z,7.47
2023-01-17T05:09:57.766Z,7.33
2023-01-17T05:12:25.296Z,9.83
2023-01-17T05:14:52.808Z,8.40
2023-01-17T05:17:21.232Z,7.87
2023-01-17T05:19:48.752Z,10.43
2023-01-17T05:22:16.324Z,7.30
2023-01-17T05:24:43.852Z,8.40
2023-01-17T05:27:11.389Z,7.70
2023-01-17T05:29:38.923Z,9.05
2023-01-17T05:32:06.500Z,10.97
2023-01-17T05:34:33.987Z,15.83
2023-01-17T05:37:01.516Z,20.60
2023-01-17T05:39:29.038Z,16.13
2023-01-17T05:41:56.576Z,13.00
2023-01-17T05:44:24.093Z,17.10
2023-01-17T05:46:51.678Z,17.13
2023-01-17T05:49:19.238Z,19.70
2023-01-17T05:51:46.768Z,16.93
2023-01-17T05:54:14.352Z,15.00
2023-01-17T05:56:41.899Z,13.77
2023-01-17T05:59:09.415Z,15.30
2023-01-17T06:01:37.247Z,8.97
2023-01-17T06:04:04.777Z,11.87
2023-01-17T06:06:32.298Z,9.10
2023-01-17T06:08:59.881Z,11.33
2023-01-17T06:11:27.414Z,11.67
2023-01-17T06:13:54.929Z,8.77
2023-01-17T06:16:22.788Z,10.47
2023-01-17T06:18:50.282Z,9.40
2023-01-17T06:21:17.814Z,10.87
2023-01-17T06:23:45.365Z,12.00
2023-01-17T06:26:12.897Z,11.70
2023-01-17T06:28:40.413Z,15.83
2023-01-17T06:31:08.247Z,20.33
2023-01-17T06:33:35.768Z,19.90
2023-01-17T06:36:03.292Z,12.03
2023-01-17T06:38:30.841Z,14.13
2023-01-17T06:40:58.405Z,14.17
2023-01-17T06:43:25.959Z,11.37
2023-01-17T06:45:53.501Z,13.10
2023-01-17T06:48:21.006Z,16.73
2023-01-17T06:50:48.548Z,15.00
2023-01-17T06:53:16.095Z,23.60
2023-01-17T06:55:43.614Z,49.13
2023-01-17T06:58:11.137Z,41.67
2023-01-17T07:00:40.740Z,38.77
2023-01-17T07:03:06.225Z,50.00
2023-01-17T07:05:33.739Z,28.17
2023-01-17T07:08:01.296Z,22.97
2023-01-17T07:10:28.863Z,20.53
2023-01-17T07:12:59.346Z,19.52
2023-01-17T07:15:26.929Z,15.20
2023-01-17T07:17:54.436Z,12.83
2023-01-17T07:20:21.964Z,13.13
2023-01-17T07:22:49.535Z,14.13
2023-01-17T07:25:17.051Z,15.90
2023-01-17T07:27:44.565Z,18.37
2023-01-17T07:30:12.223Z,17.83
2023-01-17T07:32:39.757Z,19.63
2023-01-17T07:35:07.329Z,16.47
2023-01-17T07:37:35.176Z,13.17
2023-01-17T07:40:02.697Z,19.27
2023-01-17T07:42:30.205Z,14.77
2023-01-17T07:44:57.797Z,12.17
2023-01-17T07:47:25.308Z,12.03
2023-01-17T07:49:52.831Z,11.73
2023-01-17T07:52:20.903Z,9.60
2023-01-17T07:54:48.452Z,12.10
2023-01-17T07:57:15.947Z,11.67
2023-01-17T07:59:43.491Z,9.57
2023-01-17T08:02:16.648Z,8.47
2023-01-17T08:04:44.103Z,10.73
2023-01-17T08:07:11.925Z,9.07
2023-01-17T08:09:39.429Z,9.33
2023-01-17T08:12:06.975Z,24.30
2023-01-17T08:14:34.549Z,10.93
2023-01-17T08:17:04.761Z,15.20
2023-01-17T08:19:32.293Z,15.70
2023-01-17T08:21:59.840Z,13.10
2023-01-17T08:24:27.374Z,15.27
2023-01-17T08:26:57.337Z,15.77
2023-01-17T08:29:24.898Z,12.57
2023-01-17T08:31:52.442Z,15.27
2023-01-17T08:34:19.947Z,28.10
2023-01-17T08:36:47.540Z,25.00
2023-01-17T08:39:15.053Z,28.33
2023-01-17T08:41:42.569Z,30.60
2023-01-17T08:44:10.153Z,40.17
2023-01-17T08:46:40.102Z,32.23
2023-01-17T08:49:07.629Z,27.40
2023-01-17T08:51:35.219Z,24.20
2023-01-17T08:54:02.742Z,24.37
2023-01-17T08:56:30.240Z,11.93
2023-01-17T08:58:57.794Z,11.90
2023-01-17T09:01:26.740Z,13.00
2023-01-17T09:03:52.898Z,13.75
2023-01-17T09:06:20.431Z,16.47
2023-01-17T09:08:47.990Z,17.93
2023-01-17T09:11:15.468Z,14.53
2023-01-17T09:13:43.072Z,12.70
2023-01-17T09:16:10.645Z,13.03
2023-01-17T09:18:38.215Z,13.40
2023-01-17T09:21:14.814Z,13.10
2023-01-17T09:23:42.330Z,16.63
2023-01-17T09:26:09.853Z,13.97
2023-01-17T09:28:37.418Z,13.57
2023-01-17T09:31:05.039Z,16.27
2023-01-17T09:33:32.488Z,13.97
2023-01-17T09:36:03.104Z,15.23
2023-01-17T09:38:30.628Z,13.87
2023-01-17T09:40:58.155Z,13.03
2023-01-17T09:43:28.593Z,16.05
2023-01-17T09:45:56.165Z,16.17
2023-01-17T09:48:26.351Z,13.23
2023-01-17T09:50:53.929Z,18.33
2023-01-17T09:53:21.464Z,12.23
2023-01-17T09:56:06.824Z,14.43
2023-01-17T09:58:40.131Z,12.80
2023-01-17T10:01:10.384Z,17.40
2023-01-17T10:03:55.564Z,18.37
2023-01-17T10:06:22.999Z,22.33
2023-01-17T10:08:53.345Z,23.73
2023-01-17T10:11:38.361Z,14.90
2023-01-17T10:14:20.380Z,14.40
2023-01-17T10:17:11.369Z,13.87
2023-01-17T10:19:41.377Z,13.23
2023-01-17T10:22:41.971Z,12.23
2023-01-17T10:25:21.350Z,9.03
2023-01-17T10:27:48.935Z,12.37
2023-01-17T10:30:22.131Z,12.70
2023-01-17T10:32:49.666Z,15.93
2023-01-17T10:35:17.220Z,13.17
2023-01-17T10:37:44.754Z,12.55
2023-01-17T10:40:30.013Z,12.60
2023-01-17T10:43:03.239Z,12.80
2023-01-17T10:45:30.766Z,13.97
2023-01-17T10:48:01.012Z,11.87
2023-01-17T10:50:28.525Z,14.10
2023-01-17T10:52:58.803Z,12.90
2023-01-17T10:55:29.373Z,10.97
2023-01-17T10:57:56.885Z,9.43
2023-01-17T11:00:36.092Z,11.77
2023-01-17T11:03:03.665Z,11.87
2023-01-17T11:05:31.203Z,11.00
2023-01-17T11:08:04.599Z,12.93
2023-01-17T11:10:40.926Z,15.07
2023-01-17T11:13:26.091Z,13.37
2023-01-17T11:15:56.289Z,13.13
2023-01-17T11:18:23.803Z,15.15
2023-01-17T11:20:51.439Z,14.27
2023-01-17T11:23:24.623Z,13.63
2023-01-17T11:25:52.164Z,15.80
2023-01-17T11:28:25.565Z,15.73
2023-01-17T11:30:53.117Z,11.57
2023-01-17T11:33:26.353Z,14.13
2023-01-17T11:35:53.928Z,11.93
2023-01-17T11:38:21.444Z,14.33
2023-01-17T11:40:48.972Z,11.67
2023-01-17T11:43:25.208Z,12.20
2023-01-17T11:46:01.681Z,14.10
2023-01-17T11:48:29.184Z,11.93
2023-01-17T11:50:59.681Z,10.00
2023-01-17T11:53:32.894Z,11.50
2023-01-17T11:56:08.864Z,12.13
2023-01-17T11:58:36.380Z,11.10
2023-01-17T12:01:21.931Z,10.80
2023-01-17T12:04:07.511Z,9.43
2023-01-17T12:06:57.765Z,9.30
2023-01-17T12:09:38.645Z,8.03
2023-01-17T12:12:23.883Z,12.17
2023-01-17T12:14:51.424Z,9.83
2023-01-17T12:17:21.624Z,10.47
2023-01-17T12:19:57.982Z,9.80
2023-01-17T12:22:37.390Z,9.00
2023-01-17T12:25:07.661Z,7.87
2023-01-17T12:27:44.304Z,8.60
2023-01-17T12:30:23.472Z,7.73
2023-01-17T12:33:02.473Z,9.07
2023-01-17T12:35:32.801Z,9.07
2023-01-17T12:38:09.448Z,8.47
2023-01-17T12:40:58.165Z,9.20
2023-01-17T12:43:28.323Z,6.67
2023-01-17T12:45:55.848Z,8.60
2023-01-17T12:48:23.496Z,7.80
2023-01-17T12:51:08.799Z,4.60
2023-01-17T12:53:54.352Z,8.07
2023-01-17T12:56:30.354Z,6.73
2023-01-17T12:59:12.688Z,6.97
2023-01-17T13:01:40.418Z,5.23
2023-01-17T13:04:26.175Z,4.07
2023-01-17T13:06:59.475Z,8.17
2023-01-17T13:09:29.431Z,7.30
2023-01-17T13:12:05.695Z,4.00
2023-01-17T13:14:33.203Z,5.13
2023-01-17T13:17:03.488Z,6.77
2023-01-17T13:19:45.841Z,5.63
2023-01-17T13:22:13.403Z,5.03
2023-01-17T13:24:49.684Z,4.82
2023-01-17T13:27:17.260Z,5.45
2023-01-17T13:29:56.320Z,3.13
2023-01-17T13:32:51.130Z,4.87
2023-01-17T13:35:35.942Z,5.77
2023-01-17T13:38:06.019Z,3.70
2023-01-17T13:40:42.208Z,5.73
2023-01-17T13:43:21.391Z,3.53
2023-01-17T13:45:54.379Z,4.33
2023-01-17T13:48:21.836Z,2.07
2023-01-17T13:50:51.851Z,5.93
2023-01-17T13:53:39.694Z,4.93
2023-01-17T13:56:19.166Z,4.67
2023-01-17T13:58:52.219Z,4.67
2023-01-17T14:01:22.693Z,4.07
2023-01-17T14:03:52.733Z,5.00
2023-01-17T14:06:46.982Z,3.67
2023-01-17T14:09:23.011Z,9.73
2023-01-17T14:11:50.525Z,5.20
2023-01-17T14:14:42.497Z,3.97
2023-01-17T14:17:24.340Z,3.93
2023-01-17T14:19:57.917Z,3.80
2023-01-17T14:22:25.435Z,7.93
2023-01-17T14:25:19.967Z,5.57
2023-01-17T14:28:02.561Z,5.73
2023-01-17T14:30:33.010Z,4.00
2023-01-17T14:33:03.392Z,4.33
2023-01-17T14:35:30.913Z,5.10
2023-01-17T14:37:58.460Z,5.77
2023-01-17T14:40:28.777Z,6.23
2023-01-17T14:43:01.737Z,4.47
2023-01-17T14:45:29.353Z,5.50
2023-01-17T14:47:56.811Z,6.03
2023-01-17T14:50:24.501Z,3.63
2023-01-17T14:53:07.114Z,4.73
2023-01-17T14:55:34.611Z,5.67
2023-01-17T14:58:02.156Z,5.43
2023-01-17T15:00:29.689Z,10.07
2023-01-17T15:02:57.321Z,8.30
2023-01-17T15:05:24.738Z,6.37
2023-01-17T15:07:52.295Z,5.97
2023-01-17T15:10:19.806Z,7.13
2023-01-17T15:12:47.320Z,8.20
2023-01-17T15:15:24.199Z,5.60
2023-01-17T15:17:51.711Z,5.93
2023-01-17T15:20:19.263Z,7.57
2023-01-17T15:22:46.791Z,3.00
2023-01-17T15:25:16.181Z,5.80
2023-01-17T15:27:41.830Z,4.50
2023-01-17T15:30:09.532Z,3.63
2023-01-17T15:32:37.071Z,4.07
2023-01-17T15:35:04.587Z,4.37
2023-01-17T15:37:38.442Z,4.27
2023-01-17T15:40:14.816Z,3.37
2023-01-17T15:42:42.341Z,4.83
2023-01-17T15:45:13.754Z,3.43
2023-01-17T15:47:41.278Z,5.20
2023-01-17T15:50:26.618Z,3.27
2023-01-17T15:52:54.139Z,4.07
2023-01-17T15:55:33.704Z,5.30
2023-01-17T15:58:01.226Z,3.67
2023-01-17T16:00:28.754Z,4.20
2023-01-17T16:02:56.387Z,4.63
2023-01-17T16:05:29.757Z,5.45
2023-01-17T16:07:57.286Z,4.97
2023-01-17T16:10:24.845Z,3.47
2023-01-17T16:12:52.875Z,3.83
2023-01-17T16:15:19.921Z,3.60
2023-01-17T16:17:47.556Z,3.93
2023-01-17T16:20:20.750Z,3.20
2023-01-17T16:22:48.423Z,1.97
2023-01-17T16:25:18.771Z,14.73
2023-01-17T16:27:46.288Z,4.45
2023-01-17T16:30:13.903Z,6.13
2023-01-17T16:32:41.644Z,10.10
2023-01-17T16:35:11.883Z,4.90
2023-01-17T16:37:39.411Z,8.97
2023-01-17T16:40:07.087Z,5.33
2023-01-17T16:42:34.629Z,4.37
2023-01-17T16:45:02.146Z,4.17
2023-01-17T16:47:29.667Z,4.87
2023-01-17T16:49:57.224Z,5.07
2023-01-17T16:52:24.750Z,6.47
2023-01-17T16:54:52.270Z,4.03
2023-01-17T16:57:20.703Z,5.20
2023-01-17T16:59:50.807Z,3.60
2023-01-17T17:02:15.812Z,3.67
2023-01-17T17:04:43.939Z,6.93
2023-01-17T17:07:11.719Z,8.80
2023-01-17T17:09:39.284Z,4.50
2023-01-17T17:12:06.824Z,5.20
2023-01-17T17:14:34.332Z,4.60
2023-01-17T17:17:01.912Z,6.47
2023-01-17T17:19:29.435Z,3.20
2023-01-17T17:21:59.619Z,4.50
2023-01-17T17:24:28.050Z,4.43
2023-01-17T17:26:55.559Z,4.03
2023-01-17T17:29:23.087Z,6.10
2023-01-17T17:31:50.647Z,3.03
2023-01-17T17:34:18.173Z,4.40
2023-01-17T17:36:45.711Z,6.77
2023-01-17T17:39:13.266Z,5.87
2023-01-17T17:41:43.655Z,4.33
2023-01-17T17:44:11.140Z,4.20
2023-01-17T17:46:38.775Z,7.97
2023-01-17T17:49:06.218Z,3.87
2023-01-17T17:51:36.495Z,4.90
2023-01-17T17:54:04.039Z,5.17
2023-01-17T17:56:31.561Z,4.73
2023-01-17T17:58:59.075Z,4.57
2023-01-17T18:01:26.707Z,4.47
2023-01-17T18:03:54.169Z,4.53
2023-01-17T18:06:21.694Z,7.17
2023-01-17T18:08:49.238Z,5.40
2023-01-17T18:11:16.828Z,5.53
2023-01-17T18:13:44.357Z,7.17
2023-01-17T18:16:11.965Z,4.83
2023-01-17T18:18:39.447Z,5.45
2023-01-17T18:21:09.625Z,6.90
2023-01-17T18:23:40.101Z,5.97
2023-01-17T18:26:07.610Z,5.03
2023-01-17T18:28:35.156Z,7.20
2023-01-17T18:31:05.853Z,7.37
2023-01-17T18:33:33.381Z,9.47
2023-01-17T18:36:02.709Z,7.47
2023-01-17T18:38:28.429Z,4.85
2023-01-17T18:40:55.964Z,4.13
2023-01-17T18:43:23.494Z,6.00
2023-01-17T18:45:53.955Z,5.37
2023-01-17T18:48:21.488Z,8.03
2023-01-17T18:50:58.109Z,5.43
2023-01-17T18:53:25.665Z,9.13
2023-01-17T18:55:57.182Z,5.37
2023-01-17T18:58:23.965Z,6.03
2023-01-17T19:00:51.577Z,6.20
2023-01-17T19:03:19.022Z,9.07
2023-01-17T19:05:46.596Z,7.23
2023-01-17T19:08:14.111Z,6.60
2023-01-17T19:10:41.618Z,8.00
2023-01-17T19:13:09.179Z,4.20
2023-01-17T19:15:36.689Z,5.93
2023-01-17T19:18:04.232Z,8.87
2023-01-17T19:20:31.791Z,9.73
2023-01-17T19:22:59.313Z,10.73
2023-01-17T19:25:26.826Z,8.17
2023-01-17T19:27:54.703Z,6.17
2023-01-17T19:30:21.898Z,6.43
2023-01-17T19:32:52.109Z,6.30
2023-01-17T19:35:22.555Z,5.87
2023-01-17T19:37:47.697Z,6.83
2023-01-17T19:40:15.231Z,5.97
2023-01-17T19:42:43.045Z,5.40
2023-01-17T19:45:10.556Z,7.60
2023-01-17T19:47:38.091Z,8.93
2023-01-17T19:50:05.671Z,5.47
2023-01-17T19:52:33.191Z,6.47
2023-01-17T19:55:00.716Z,8.03
2023-01-17T19:57:28.772Z,7.00
2023-01-17T19:59:56.327Z,4.83
2023-01-17T20:02:23.922Z,5.57
2023-01-17T20:04:51.679Z,5.27
2023-01-17T20:07:19.185Z,4.43
2023-01-17T20:09:46.714Z,7.33
2023-01-17T20:12:14.283Z,4.13
2023-01-17T20:14:41.809Z,5.57
2023-01-17T20:17:09.332Z,5.20
2023-01-17T20:19:37.165Z,6.17
2023-01-17T20:22:04.707Z,6.43
2023-01-17T20:24:32.222Z,4.70
2023-01-17T20:26:59.777Z,5.63
2023-01-17T20:29:27.292Z,4.67
2023-01-17T20:31:54.868Z,3.87
2023-01-17T20:34:22.370Z,3.40
2023-01-17T20:36:49.943Z,5.47
2023-01-17T20:39:17.452Z,5.00
2023-01-17T20:41:45.015Z,6.73
2023-01-17T20:44:12.530Z,4.77
2023-01-17T20:46:40.818Z,5.27
2023-01-17T20:49:07.654Z,5.83
2023-01-17T20:51:35.173Z,7.17
2023-01-17T20:54:02.711Z,4.93
2023-01-17T20:56:30.294Z,5.83
2023-01-17T20:58:57.819Z,6.10
2023-01-17T21:01:25.475Z,4.07
2023-01-17T21:03:52.939Z,5.03
2023-01-17T21:06:20.477Z,4.80
2023-01-17T21:08:47.996Z,4.37
2023-01-17T21:11:16.061Z,4.47
2023-01-17T21:13:43.583Z,3.77
2023-01-17T21:16:11.085Z,6.80
2023-01-17T21:18:38.651Z,4.93
2023-01-17T21:21:08.845Z,5.60
2023-01-17T21:23:36.376Z,12.93
2023-01-17T21:26:03.949Z,16.83
2023-01-17T21:28:31.486Z,19.57
2023-01-17T21:30:59.046Z,21.43
2023-01-17T21:33:26.818Z,19.53
2023-01-17T21:35:54.339Z,38.07
2023-01-17T21:38:21.858Z,29.83
2023-01-17T21:40:49.433Z,15.03
2023-01-17T21:43:16.946Z,7.53
2023-01-17T21:45:44.478Z,6.00
2023-01-17T21:48:12.053Z,5.77
2023-01-17T21:50:39.553Z,5.07
2023-01-17T21:53:07.074Z,5.97
2023-01-17T21:55:52.575Z,6.12
2023-01-17T21:58:38.041Z,5.68
2023-01-17T22:01:08.201Z,5.33
2023-01-17T22:03:35.657Z,3.27
2023-01-17T22:06:03.194Z,11.43
2023-01-17T22:08:33.810Z,5.80
2023-01-17T22:11:09.929Z,5.30
2023-01-17T22:13:37.433Z,6.07
2023-01-17T22:16:05.253Z,5.67
2023-01-17T22:18:32.741Z,4.93
2023-01-17T22:21:00.302Z,6.53
2023-01-17T22:23:27.782Z,9.60
2023-01-17T22:25:55.298Z,6.63
2023-01-17T22:28:22.820Z,6.67
2023-01-17T22:30:50.430Z,6.27
2023-01-17T22:33:17.897Z,12.83
2023-01-17T22:35:45.417Z,13.50
2023-01-17T22:38:12.971Z,8.30
2023-01-17T22:40:40.496Z,9.10
2023-01-17T22:43:08.028Z,10.02
2023-01-17T22:45:35.582Z,8.47
2023-01-17T22:48:03.158Z,10.43
2023-01-17T22:50:30.671Z,7.87
2023-01-17T22:52:58.492Z,11.63
2023-01-17T22:55:25.771Z,11.33
2023-01-17T22:57:53.298Z,6.80
2023-01-17T23:00:20.860Z,9.03
2023-01-17T23:02:48.441Z,5.40
2023-01-17T23:05:15.898Z,5.43
2023-01-17T23:07:43.487Z,6.37
2023-01-17T23:10:11.157Z,6.53
2023-01-17T23:12:38.673Z,6.47
2023-01-17T23:15:24.342Z,6.77
2023-01-17T23:18:09.865Z,5.83
2023-01-17T23:20:37.699Z,6.43
2023-01-17T23:23:05.201Z,6.53
2023-01-17T23:25:32.734Z,4.83
2023-01-17T23:28:11.948Z,5.37
2023-01-17T23:30:39.463Z,6.20
2023-01-17T23:33:09.766Z,7.23
2023-01-17T23:35:41.444Z,7.10
2023-01-17T23:38:22.825Z,4.40
2023-01-17T23:41:08.286Z,4.97
2023-01-17T23:43:35.808Z,6.15
2023-01-17T23:46:03.347Z,9.17
2023-01-17T23:48:30.888Z,5.67
2023-01-17T23:50:58.399Z,5.57
2023-01-17T23:53:25.914Z,7.20
2023-01-17T23:55:53.475Z,3.83
2023-01-17T23:58:20.992Z,6.23
